createdAt,value
2017-11-04T03:51:18.735Z,7.50
2017-11-04T03:53:46.268Z,3.60
2017-11-04T03:56:14.549Z,3.60
2017-11-04T03:58:42.847Z,3.60
2017-11-04T04:01:10.366Z,3.50
2017-11-04T04:03:37.877Z,3.50
2017-11-04T04:06:05.422Z,3.50
2017-11-04T04:08:32.936Z,3.60
2017-11-04T04:11:00.461Z,3.50
2017-11-04T04:13:28.000Z,3.50
2017-11-04T04:15:55.529Z,3.60
2017-11-04T04:18:23.052Z,3.50
2017-11-04T04:20:50.594Z,3.60
2017-11-04T04:23:18.112Z,3.60
2017-11-04T04:25:45.625Z,3.60
2017-11-04T04:28:13.175Z,3.50
2017-11-04T04:30:40.693Z,3.50
2017-11-04T04:33:08.980Z,3.50
2017-11-04T04:35:36.517Z,3.50
2017-11-04T04:38:04.030Z,3.50
2017-11-04T04:40:31.572Z,3.50
2017-11-04T04:42:59.090Z,3.50
2017-11-04T04:45:26.636Z,3.50
2017-11-04T04:47:54.179Z,3.50
2017-11-04T04:50:21.688Z,3.50
2017-11-04T04:52:49.973Z,3.50
2017-11-04T04:55:18.272Z,3.40
2017-11-04T04:57:45.786Z,3.40
2017-11-04T05:00:13.312Z,3.40
2017-11-04T05:02:40.858Z,3.40
2017-11-04T05:05:08.370Z,3.40
2017-11-04T05:07:35.885Z,3.40
2017-11-04T05:10:03.444Z,3.40
2017-11-04T05:12:33.869Z,3.40
2017-11-04T05:15:01.372Z,3.30
2017-11-04T05:17:28.925Z,3.30
2017-11-04T05:19:56.444Z,3.30
2017-11-04T05:22:23.953Z,3.30
2017-11-04T05:24:51.491Z,3.40
2017-11-04T05:27:19.050Z,3.40
2017-11-04T05:29:46.565Z,3.40
2017-11-04T05:32:14.081Z,3.40
2017-11-04T05:34:41.633Z,3.50
2017-11-04T05:37:09.155Z,3.40
2017-11-04T05:39:36.671Z,3.40
2017-11-04T05:42:04.200Z,3.50
2017-11-04T05:44:31.722Z,3.40
2017-11-04T05:46:59.257Z,3.50
2017-11-04T05:49:26.806Z,3.50
2017-11-04T05:51:54.312Z,3.50
2017-11-04T05:54:21.819Z,3.50
2017-11-04T05:56:49.353Z,3.40
2017-11-04T05:59:16.889Z,3.40
2017-11-04T06:01:44.448Z,3.40
2017-11-04T06:04:11.969Z,3.30
2017-11-04T06:06:39.498Z,3.40
2017-11-04T06:09:07.060Z,3.40
2017-11-04T06:11:34.576Z,3.40
2017-11-04T06:14:02.087Z,3.50
2017-11-04T06:16:29.644Z,3.40
2017-11-04T06:18:57.935Z,3.40
2017-11-04T06:21:25.443Z,3.40
2017-11-04T06:23:52.989Z,3.40
2017-11-04T06:26:20.507Z,3.50
2017-11-04T06:28:48.012Z,3.50
2017-11-04T06:31:15.565Z,3.50
2017-11-04T06:33:43.086Z,3.60
2017-11-04T06:36:10.594Z,3.60
2017-11-04T06:38:38.140Z,3.60
2017-11-04T06:41:05.665Z,3.70
2017-11-04T06:43:34.043Z,3.70
2017-11-04T06:46:01.589Z,3.70
2017-11-04T06:48:29.981Z,3.90
2017-11-04T06:50:57.490Z,4.00
2017-11-04T06:53:25.038Z,4.20
2017-11-04T06:55:52.561Z,4.40
2017-11-04T06:58:20.069Z,4.40
2017-11-04T07:00:47.599Z,4.50
2017-11-04T07:03:15.110Z,4.60
2017-11-04T07:05:42.623Z,4.60
2017-11-04T07:08:10.944Z,4.80
2017-11-04T07:10:38.471Z,4.80
2017-11-04T07:13:05.985Z,5.00
2017-11-04T07:15:33.537Z,5.10
2017-11-04T07:18:01.054Z,5.20
2017-11-04T07:20:28.570Z,5.30
2017-11-04T07:22:56.120Z,5.40
2017-11-04T07:25:23.634Z,5.50
2017-11-04T07:27:51.172Z,5.60
2017-11-04T07:30:18.692Z,5.70
2017-11-04T07:32:46.242Z,5.80
2017-11-04T07:35:13.756Z,5.90
2017-11-04T07:37:42.060Z,6.10
2017-11-04T07:40:09.575Z,6.10
2017-11-04T07:42:37.085Z,6.10
2017-11-04T07:45:04.636Z,6.10
2017-11-04T07:47:32.145Z,6.10
2017-11-04T07:49:59.671Z,6.20
2017-11-04T07:52:27.218Z,6.20
2017-11-04T07:54:54.815Z,6.20
2017-11-04T07:57:22.336Z,6.30
2017-11-04T07:59:49.895Z,6.30
2017-11-04T08:02:17.405Z,6.50
2017-11-04T08:04:44.974Z,6.50
2017-11-04T08:07:12.481Z,6.50
2017-11-04T08:09:41.749Z,6.50
2017-11-04T08:12:09.288Z,6.60
2017-11-04T08:14:36.796Z,6.60
2017-11-04T08:17:04.341Z,6.60
2017-11-04T08:19:31.844Z,6.70
2017-11-04T08:21:59.362Z,6.70
2017-11-04T08:24:27.681Z,6.80
2017-11-04T08:26:55.193Z,6.80
2017-11-04T08:29:22.718Z,6.80
2017-11-04T08:31:50.265Z,6.90
2017-11-04T08:34:17.781Z,7.00
2017-11-04T08:36:45.458Z,7.00
2017-11-04T08:39:13.013Z,7.10
2017-11-04T08:41:40.522Z,7.10
2017-11-04T08:44:08.056Z,7.10
2017-11-04T08:46:35.568Z,7.20
2017-11-04T08:49:03.837Z,7.30
2017-11-04T08:51:31.377Z,7.30
2017-11-04T08:53:58.886Z,7.30
2017-11-04T08:56:26.393Z,7.30
2017-11-04T08:58:53.930Z,7.30
2017-11-04T09:01:21.448Z,7.30
2017-11-04T09:03:50.916Z,7.40
2017-11-04T09:06:18.456Z,7.50
2017-11-04T09:08:45.963Z,7.50
2017-11-04T09:11:13.509Z,7.50
2017-11-04T09:13:41.020Z,7.50
2017-11-04T09:16:08.560Z,7.50
2017-11-04T09:18:36.851Z,7.60
2017-11-04T09:21:04.386Z,7.60
2017-11-04T09:23:31.932Z,7.70
2017-11-04T09:25:59.468Z,7.80
2017-11-04T09:28:26.981Z,7.80
2017-11-04T09:30:54.505Z,7.80
2017-11-04T09:33:22.051Z,7.80
2017-11-04T09:35:49.555Z,7.80
2017-11-04T09:38:17.061Z,7.70
2017-11-04T09:40:44.624Z,7.70
2017-11-04T09:43:12.120Z,7.70
2017-11-04T09:45:39.644Z,7.70
2017-11-04T09:48:07.183Z,7.70
2017-11-04T09:50:34.720Z,7.80
2017-11-04T09:53:02.238Z,7.90
2017-11-04T09:55:29.796Z,7.90
2017-11-04T09:57:57.308Z,8.00
2017-11-04T10:00:24.868Z,8.00
2017-11-04T10:02:52.413Z,8.00
2017-11-04T10:05:19.925Z,8.10
2017-11-04T10:07:47.466Z,8.10
2017-11-04T10:10:14.993Z,8.20
2017-11-04T10:12:43.264Z,8.40
2017-11-04T10:15:10.805Z,8.30
2017-11-04T10:17:38.309Z,8.30
2017-11-04T10:20:05.809Z,8.30
2017-11-04T10:22:33.361Z,8.30
2017-11-04T10:25:00.867Z,8.40
2017-11-04T10:27:29.165Z,8.80
2017-11-04T10:29:56.711Z,8.70
2017-11-04T10:32:24.231Z,8.90
2017-11-04T10:34:51.745Z,9.00
2017-11-04T10:37:19.306Z,9.10
2017-11-04T10:39:46.816Z,9.20
2017-11-04T10:42:14.329Z,9.00
2017-11-04T10:44:41.890Z,9.20
2017-11-04T10:47:10.164Z,9.80
2017-11-04T10:49:37.667Z,9.70
2017-11-04T10:52:05.196Z,9.70
2017-11-04T10:54:32.714Z,9.80
2017-11-04T10:57:00.257Z,10.00
2017-11-04T10:59:27.778Z,10.10
2017-11-04T11:01:55.291Z,10.20
2017-11-04T11:04:22.836Z,10.30
2017-11-04T11:06:51.118Z,10.50
2017-11-04T11:09:19.396Z,10.90
2017-11-04T11:11:47.710Z,11.20
2017-11-04T11:14:15.233Z,11.10
2017-11-04T11:16:42.744Z,11.40
2017-11-04T11:19:10.301Z,11.60
2017-11-04T11:21:37.821Z,11.90
2017-11-04T11:24:05.345Z,11.90
2017-11-04T11:26:32.900Z,12.10
2017-11-04T11:29:00.412Z,12.00
2017-11-04T11:31:27.929Z,12.30
2017-11-04T11:33:55.497Z,12.40
2017-11-04T11:36:23.009Z,12.40
2017-11-04T11:38:50.540Z,12.60
2017-11-04T11:41:18.847Z,13.20
2017-11-04T11:43:46.368Z,13.10
2017-11-04T11:46:14.866Z,13.30
2017-11-04T11:48:43.296Z,13.50
2017-11-04T11:51:10.838Z,13.50
2017-11-04T11:53:38.359Z,13.30
2017-11-04T11:56:05.910Z,13.20
2017-11-04T11:58:34.180Z,13.30
2017-11-04T12:01:01.698Z,13.20
2017-11-04T12:03:29.245Z,13.20
2017-11-04T12:05:56.791Z,13.30
2017-11-04T12:08:24.301Z,13.30
2017-11-04T12:10:51.820Z,13.30
2017-11-04T12:13:19.352Z,13.20
2017-11-04T12:15:47.637Z,13.20
2017-11-04T12:18:15.909Z,13.40
2017-11-04T12:20:44.216Z,13.70
2017-11-04T12:23:11.726Z,13.60
2017-11-04T12:25:39.229Z,13.70
2017-11-04T12:28:06.758Z,13.50
2017-11-04T12:30:35.039Z,13.10
2017-11-04T12:33:03.342Z,13.10
2017-11-04T12:35:30.893Z,13.00
2017-11-04T12:37:58.409Z,13.10
2017-11-04T12:40:25.957Z,13.30
2017-11-04T12:42:53.465Z,13.40
2017-11-04T12:45:20.968Z,13.40
2017-11-04T12:47:48.513Z,13.20
2017-11-04T12:50:16.025Z,13.00
2017-11-04T12:52:44.323Z,13.40
2017-11-04T12:55:11.872Z,13.30
2017-11-04T12:57:40.169Z,13.20
2017-11-04T13:00:07.689Z,13.10
2017-11-04T13:02:35.253Z,13.30
2017-11-04T13:05:02.767Z,13.40
2017-11-04T13:07:30.276Z,13.40
2017-11-04T13:09:57.813Z,13.50
2017-11-04T13:12:25.353Z,13.40
2017-11-04T13:14:52.869Z,13.40
2017-11-04T13:17:21.176Z,13.20
2017-11-04T13:19:48.689Z,13.20
2017-11-04T13:22:16.188Z,13.20
2017-11-04T13:24:43.755Z,13.00
2017-11-04T13:27:11.268Z,12.80
2017-11-04T13:29:38.776Z,12.80
2017-11-04T13:32:06.312Z,12.90
2017-11-04T13:34:34.580Z,12.90
2017-11-04T13:37:02.889Z,13.00
2017-11-04T13:39:30.429Z,12.90
2017-11-04T13:41:57.952Z,13.10
2017-11-04T13:44:25.495Z,13.10
2017-11-04T13:46:53.008Z,13.10
2017-11-04T13:49:20.563Z,13.20
2017-11-04T13:51:48.856Z,13.30
2017-11-04T13:54:16.435Z,13.30
2017-11-04T13:56:43.984Z,13.50
2017-11-04T13:59:11.488Z,13.40
2017-11-04T14:01:39.008Z,13.60
2017-11-04T14:04:06.549Z,13.40
2017-11-04T14:06:34.093Z,13.40
2017-11-04T14:09:02.369Z,13.40
2017-11-04T14:11:29.876Z,13.40
2017-11-04T14:13:57.421Z,13.50
2017-11-04T14:16:24.968Z,13.50
2017-11-04T14:18:52.481Z,13.40
2017-11-04T14:21:19.986Z,13.30
2017-11-04T14:23:47.534Z,13.20
2017-11-04T14:26:15.048Z,13.10
2017-11-04T14:28:42.550Z,13.10
2017-11-04T14:31:10.850Z,13.10
2017-11-04T14:33:38.362Z,13.10
2017-11-04T14:36:05.873Z,13.20
2017-11-04T14:38:33.409Z,13.20
2017-11-04T14:41:01.689Z,13.00
2017-11-04T14:43:29.965Z,12.90
2017-11-04T14:45:57.509Z,12.90
2017-11-04T14:48:25.034Z,12.80
2017-11-04T14:50:52.543Z,12.60
2017-11-04T14:53:20.849Z,12.30
2017-11-04T14:55:48.364Z,12.30
2017-11-04T14:58:15.907Z,12.30
2017-11-04T15:00:43.417Z,12.20
2017-11-04T15:03:10.925Z,12.20
2017-11-04T15:05:38.457Z,12.10
2017-11-04T15:08:05.962Z,12.00
2017-11-04T15:10:33.473Z,12.00
2017-11-04T15:13:01.028Z,12.00
2017-11-04T15:15:28.551Z,11.90
2017-11-04T15:17:56.865Z,11.80
2017-11-04T15:20:24.377Z,11.80
2017-11-04T15:22:51.901Z,11.80
2017-11-04T15:25:19.447Z,11.60
2017-11-04T15:27:46.997Z,11.60
2017-11-04T15:30:14.509Z,11.50
2017-11-04T15:32:42.053Z,11.50
2017-11-04T15:35:09.561Z,11.40
2017-11-04T15:37:37.073Z,11.30
2017-11-04T15:40:04.615Z,11.30
2017-11-04T15:42:32.126Z,11.20
2017-11-04T15:45:00.396Z,11.00
2017-11-04T15:47:28.000Z,11.00
2017-11-04T15:49:55.544Z,10.90
2017-11-04T15:52:23.081Z,10.90
2017-11-04T15:54:51.367Z,10.90
2017-11-04T15:57:18.885Z,10.90
2017-11-04T15:59:46.441Z,10.90
2017-11-04T16:02:13.965Z,10.90
2017-11-04T16:04:41.478Z,10.90
2017-11-04T16:07:09.028Z,10.80
2017-11-04T16:09:36.560Z,10.80
2017-11-04T16:12:04.102Z,10.80
2017-11-04T16:14:31.608Z,10.70
2017-11-04T16:16:59.126Z,10.60
2017-11-04T16:19:26.672Z,10.60
2017-11-04T16:21:54.196Z,10.50
2017-11-04T16:24:21.713Z,10.50
2017-11-04T16:26:49.262Z,10.50
2017-11-04T16:29:16.764Z,10.50
2017-11-04T16:31:44.297Z,10.40
2017-11-04T16:34:11.841Z,10.40
2017-11-04T16:36:39.362Z,10.40
2017-11-04T16:39:06.906Z,10.30
2017-11-04T16:41:34.428Z,10.30
2017-11-04T16:44:01.946Z,10.20
2017-11-04T16:46:29.515Z,10.20
2017-11-04T16:48:57.813Z,10.10
2017-11-04T16:51:25.317Z,10.10
2017-11-04T16:53:52.854Z,10.10
2017-11-04T16:56:20.363Z,10.10
2017-11-04T16:58:48.640Z,10.00
2017-11-04T17:01:16.949Z,10.00
2017-11-04T17:03:44.460Z,10.00
2017-11-04T17:06:11.979Z,10.00
2017-11-04T17:08:39.653Z,10.00
2017-11-04T17:11:07.923Z,9.90
2017-11-04T17:13:35.436Z,9.90
2017-11-04T17:16:03.764Z,9.90
2017-11-04T17:18:31.273Z,9.90
2017-11-04T17:20:58.810Z,9.80
2017-11-04T17:23:26.339Z,9.80
2017-11-04T17:25:53.845Z,9.80
2017-11-04T17:28:21.387Z,9.80
2017-11-04T17:30:48.888Z,9.70
2017-11-04T17:33:16.393Z,9.70
2017-11-04T17:35:43.962Z,9.70
2017-11-04T17:38:11.469Z,9.70
2017-11-04T17:40:39.042Z,9.70
2017-11-04T17:43:06.577Z,9.60
2017-11-04T17:45:34.874Z,9.60
2017-11-04T17:48:02.434Z,9.50
2017-11-04T17:50:29.969Z,9.60
2017-11-04T17:52:58.238Z,9.60
2017-11-04T17:55:26.538Z,9.50
2017-11-04T17:57:54.071Z,9.50
2017-11-04T18:00:21.578Z,9.50
2017-11-04T18:02:49.119Z,9.50
2017-11-04T18:05:16.661Z,9.40
2017-11-04T18:07:44.941Z,9.50
2017-11-04T18:10:13.220Z,9.40
2017-11-04T18:12:41.522Z,9.40
2017-11-04T18:15:09.036Z,9.40
2017-11-04T18:17:37.345Z,9.40
2017-11-04T18:20:04.873Z,9.40
2017-11-04T18:22:32.393Z,9.40
2017-11-04T18:24:59.936Z,9.40
2017-11-04T18:27:27.458Z,9.40
2017-11-04T18:29:54.983Z,9.30
2017-11-04T18:32:22.524Z,9.30
2017-11-04T18:34:50.031Z,9.30
2017-11-04T18:37:17.547Z,9.30
2017-11-04T18:39:45.099Z,9.20
2017-11-04T18:42:12.622Z,9.20
2017-11-04T18:44:40.144Z,9.20
2017-11-04T18:47:07.695Z,9.20
2017-11-04T18:49:35.207Z,9.20
2017-11-04T18:52:02.744Z,9.20
2017-11-04T18:54:30.294Z,9.20
2017-11-04T18:56:57.799Z,9.20
2017-11-04T18:59:26.074Z,9.20
2017-11-04T19:01:53.605Z,9.20
2017-11-04T19:04:21.122Z,9.20
2017-11-04T19:06:48.641Z,9.20
2017-11-04T19:09:16.945Z,9.20
2017-11-04T19:11:44.461Z,9.20
2017-11-04T19:14:12.075Z,9.20
2017-11-04T19:16:39.634Z,9.30
2017-11-04T19:19:07.161Z,9.20
2017-11-04T19:21:35.440Z,9.20
2017-11-04T19:24:03.832Z,9.20
2017-11-04T19:26:31.361Z,9.20
2017-11-04T19:28:58.871Z,9.20
2017-11-04T19:31:26.494Z,9.30
2017-11-04T19:33:54.764Z,9.30
2017-11-04T19:36:23.064Z,9.30
2017-11-04T19:38:50.616Z,9.30
2017-11-04T19:41:18.892Z,9.40
2017-11-04T19:43:46.432Z,9.40
2017-11-04T19:46:14.005Z,9.40
2017-11-04T19:48:41.511Z,9.40
2017-11-04T19:51:09.088Z,9.30
2017-11-04T19:53:36.609Z,9.30
2017-11-04T19:56:04.124Z,9.30
2017-11-04T19:58:31.660Z,9.30
2017-11-04T20:00:59.217Z,9.30
2017-11-04T20:03:26.724Z,9.30
2017-11-04T20:05:55.817Z,9.30
2017-11-04T20:08:24.137Z,9.30
2017-11-04T20:10:51.653Z,9.30
2017-11-04T20:13:19.153Z,9.40
2017-11-04T20:15:46.825Z,9.40
2017-11-04T20:18:14.358Z,9.40
2017-11-04T20:20:41.882Z,9.40
2017-11-04T20:23:10.321Z,9.40
2017-11-04T20:25:37.837Z,9.30
2017-11-04T20:28:05.367Z,9.40
2017-11-04T20:30:33.664Z,9.40
2017-11-04T20:33:01.171Z,9.40
2017-11-04T20:35:28.706Z,9.40
2017-11-04T20:37:56.265Z,9.40
2017-11-04T20:40:24.537Z,9.40
2017-11-04T20:42:52.846Z,9.40
2017-11-04T20:45:20.479Z,9.40
2017-11-04T20:47:48.102Z,9.40
2017-11-04T20:50:15.665Z,9.50
2017-11-04T20:52:43.178Z,9.50
2017-11-04T20:55:10.724Z,9.50
2017-11-04T20:57:38.277Z,9.50
2017-11-04T21:00:06.558Z,9.60
2017-11-04T21:02:34.924Z,9.60
2017-11-04T21:05:03.274Z,9.60
2017-11-04T21:07:30.846Z,9.60
2017-11-04T21:09:59.145Z,9.60
2017-11-04T21:12:27.525Z,9.70
2017-11-04T21:14:55.085Z,9.70
2017-11-04T21:17:23.437Z,9.70
2017-11-04T21:19:50.984Z,9.70
2017-11-04T21:22:18.550Z,9.70
2017-11-04T21:24:46.156Z,9.80
2017-11-04T21:27:13.684Z,9.80
2017-11-04T21:29:41.321Z,9.80
2017-11-04T21:32:08.901Z,9.80
2017-11-04T21:34:36.404Z,9.90
2017-11-04T21:37:03.954Z,9.90
2017-11-04T21:39:31.471Z,9.90
2017-11-04T21:41:58.985Z,9.90
2017-11-04T21:44:26.534Z,9.90
2017-11-04T21:46:54.139Z,9.90
2017-11-04T21:49:21.665Z,9.90
2017-11-04T21:51:49.224Z,9.90
2017-11-04T21:54:16.809Z,9.90
2017-11-04T21:56:44.324Z,9.90
2017-11-04T21:59:12.638Z,9.90
2017-11-04T22:01:40.145Z,9.80
2017-11-04T22:04:07.696Z,9.90
2017-11-04T22:06:35.238Z,9.80
2017-11-04T22:09:02.744Z,9.80
2017-11-04T22:11:31.050Z,9.80
2017-11-04T22:13:58.605Z,9.80
2017-11-04T22:16:26.103Z,9.70
2017-11-04T22:18:53.687Z,9.70
2017-11-04T22:21:21.188Z,9.70
2017-11-04T22:23:48.744Z,9.70
2017-11-04T22:26:16.289Z,9.60
2017-11-04T22:28:43.816Z,9.60
2017-11-04T22:31:11.348Z,9.60
2017-11-04T22:33:39.699Z,9.60
2017-11-04T22:36:07.252Z,9.60
2017-11-04T22:38:34.843Z,9.60
2017-11-04T22:41:02.399Z,9.50
2017-11-04T22:43:29.975Z,9.50
2017-11-04T22:45:57.507Z,9.50
2017-11-04T22:48:25.054Z,9.50
2017-11-04T22:50:52.587Z,9.50
2017-11-04T22:53:20.914Z,9.40
2017-11-04T22:55:48.435Z,9.40
2017-11-04T22:58:16.753Z,9.40
2017-11-04T23:00:44.283Z,9.40
2017-11-04T23:03:11.801Z,9.40
2017-11-04T23:05:39.348Z,9.40
2017-11-04T23:08:06.880Z,9.40
2017-11-04T23:10:34.415Z,9.40
2017-11-04T23:13:02.794Z,9.30
2017-11-04T23:15:30.334Z,9.30
2017-11-04T23:17:57.854Z,9.30
2017-11-04T23:20:25.393Z,9.30
2017-11-04T23:22:52.964Z,9.30
2017-11-04T23:25:20.488Z,9.30
2017-11-04T23:27:48.801Z,9.20
2017-11-04T23:30:16.336Z,9.20
2017-11-04T23:32:44.616Z,9.20
2017-11-04T23:35:12.937Z,9.20
2017-11-04T23:37:40.444Z,9.20
2017-11-04T23:40:08.832Z,9.20
2017-11-04T23:42:37.140Z,9.20
2017-11-04T23:45:04.660Z,9.20
2017-11-04T23:47:32.990Z,9.20
2017-11-04T23:50:00.500Z,9.20
2017-11-04T23:52:28.880Z,9.10
2017-11-04T23:54:57.187Z,9.20
2017-11-04T23:57:24.713Z,9.10
2017-11-04T23:59:52.268Z,9.20
